Lignite, North Dakota
Current Conditions -  °F | °C
As of 10:00 AM on Monday 26 Jan 2015 (Local Time) from CYEN Reporting Station
Overcast Overcast  
Wind Chill: 28°   Ceiling: 24000
Heat Index: 36°   Visibility: 15mi
Dew Point: 30°   Wind: 10mph
Humidity: 81%   Direction: 290°WNW
Pressure: 29.92"   Gusts: NA
Location:  48.88°N, 102.56°W
Report Text: CYEN 261600Z 29009KT 15SM FEW100 OVC240 02/M01 A2992 RMK AC1CI1 CONTRAILS SLP155
Loading
Personal Weather Stations






























Interactive Weather Map New forecast layout! Learn more

10-Day Weather Forecast

Advertisements
Track Severe Weather on mobile